Wizard — WDC6082 — position and weather

sailwx.info

Track history (hours):
 
Tides and Currents Weather Stations Pressure Air Temp Water Temp Dewpoint Dewpoint Depression Visibility Wind Speed Wind Dir Waves Ship Positions

Wizard

Owner: K. H.Colburn Inc, Redmond, WA. More information available from US FCC via Universal Licensing System and Coast Guard Vessel Documentation Center.

Last reported at 2016-Jun-19 23:13 UTC. Time now 2016-Aug-27 02:58 UTC.
Position N 49°17' W 126°55'.
Warning: this ship's position is months out of date.

Length 52 m; draft 0.4 m.

MMSI: 5491.

Date/timePositionNaut miles runAvg speedWind from/ knotsBaromVisibWave heightAir tempDewpointWater temp
2016-Jun-19 23:13N 49°17' W 126°55'6 9.6
2016-Jun-19 22:33N 49°13' W 126°47'10 9.6
2016-Jun-19 21:34N 49°08' W 126°34'10 9.5
2016-Jun-19 20:34N 49°03' W 126°22'10 9.9
2016-Jun-19 19:33N 48°57' W 126°10'1010.3
2016-Jun-19 18:34N 48°51' W 125°57'1010.2
2016-Jun-19 17:34N 48°46' W 125°44'1010.5
2016-Jun-19 16:33N 48°40' W 125°31'1110.6
2016-Jun-19 15:33N 48°34' W 125°18'1010.5
2016-Jun-19 14:34N 48°32' W 125°02'1111.0
2016-Jun-19 13:33N 48°30' W 124°46'1111.4
2016-Jun-19 12:34N 48°27' W 124°30'1110.8
2016-Jun-19 11:34N 48°23' W 124°15'1110.3
2016-Jun-19 10:30N 48°18' W 123°59'1010.0
2016-Jun-19 09:31N 48°17' W 123°45'9 9.6
2016-Jun-19 08:33N 48°15' W 123°31'10 9.4
2016-Jun-19 07:26N 48°14' W 123°16'910.2
2016-Jun-19 06:33N 48°13' W 123°02'20 9.7
2016-Jun-19 04:33N 48°02' W 122°37'1110.8
2016-Jun-19 03:34N 47°53' W 122°28'10 9.9
2016-Jun-19 02:34N 47°44' W 122°25'4 4.2
2016-Jun-19 01:34N 47°40' W 122°23'0 0.0
2016-Jun-19 00:33N 47°40' W 122°23'0 0.0
2016-Jun-18 23:33N 47°40' W 122°23'0 0.0
2016-Jun-18 22:34N 47°40' W 122°23'0 0.0
2016-Jun-18 21:34N 47°40' W 122°23'0 0.0
2016-Jun-18 20:33N 47°40' W 122°23'0 0.0
2016-Jun-18 19:34N 47°40' W 122°23'0 0.0
2016-Jun-18 18:34N 47°40' W 122°23'0 0.0
2016-Jun-18 17:34N 47°40' W 122°23'0 0.0
2016-Jun-18 16:34N 47°40' W 122°23'0 0.0
2016-Jun-18 15:34N 47°40' W 122°23'0 0.0
2016-Jun-18 14:34N 47°40' W 122°23'0 0.0
2016-Jun-18 13:34N 47°40' W 122°23'0 0.0
2016-Jun-18 12:34N 47°40' W 122°23'0 0.0
2016-Jun-18 11:34N 47°40' W 122°23'0 0.0
2016-Jun-18 10:34N 47°40' W 122°23'0 0.0
2016-Jun-18 09:34N 47°40' W 122°23'0 0.0
2016-Jun-18 08:34N 47°40' W 122°23'0 0.0
2016-Jun-18 07:34N 47°40' W 122°23'0 0.0
2016-Jun-18 06:34N 47°40' W 122°23'0 0.0
2016-Jun-18 05:33N 47°40' W 122°23'0 0.0
2016-Jun-18 04:34N 47°40' W 122°23'0 0.0
2016-Jun-18 03:34N 47°40' W 122°23'0 0.0
2016-Jun-18 02:34N 47°40' W 122°23'0 0.0
2016-Jun-18 01:34N 47°40' W 122°23'0 0.0
2016-Jun-18 00:34N 47°40' W 122°23'0 0.0
2016-Jun-17 23:34N 47°40' W 122°23'0 0.0
2016-Jun-17 22:34N 47°40' W 122°23'0 0.0
2016-Jun-17 21:34N 47°40' W 122°23'0 0.0
2016-Jun-17 20:34N 47°40' W 122°23'0 0.0
2016-Jun-17 19:33N 47°40' W 122°23'0 0.0
2016-Jun-17 18:34N 47°40' W 122°23'0 0.0
2016-Jun-17 17:34N 47°40' W 122°23'0 0.0
2016-Jun-17 16:34N 47°40' W 122°23'0 0.0
2016-Jun-17 15:34N 47°40' W 122°23'0 0.0
2016-Jun-17 14:34N 47°40' W 122°23'0 0.0
2016-Jun-17 13:34N 47°40' W 122°23'0 0.0
2016-Jun-17 12:34N 47°40' W 122°23'0 0.0
2016-Jun-17 11:34N 47°40' W 122°23'0 0.0
2016-Jun-17 10:34N 47°40' W 122°23'0 0.0
2016-Jun-17 09:34N 47°40' W 122°23'0 0.0
2016-Jun-17 08:33N 47°40' W 122°23'0 0.0
2016-Jun-17 07:34N 47°40' W 122°23'0 0.0
2016-Jun-17 06:34N 47°40' W 122°23'0 0.0
2016-Jun-17 05:34N 47°40' W 122°23'0 0.0
2016-Jun-17 04:34N 47°40' W 122°23'0 0.0
2016-Jun-17 03:33N 47°40' W 122°23'0 0.0
2016-Jun-17 02:34N 47°40' W 122°23'0 0.0
2016-Jun-17 01:34N 47°40' W 122°23'0 0.0
2016-Jun-17 00:34N 47°40' W 122°23'0 0.0
2016-Jun-16 23:34N 47°40' W 122°23'0 0.0
2016-Jun-16 22:34N 47°40' W 122°23'0 0.0
2016-Jun-16 21:34N 47°40' W 122°23'0 0.0
2016-Jun-16 20:34N 47°40' W 122°23'0 0.0
2016-Jun-16 19:34N 47°40' W 122°23'0 0.0
2016-Jun-16 18:34N 47°40' W 122°23'0 0.0
2016-Jun-16 17:34N 47°40' W 122°23'0 0.0
2016-Jun-16 16:34N 47°40' W 122°23'0 0.0
2016-Jun-16 15:34N 47°40' W 122°23'0 0.0
2016-Jun-16 14:34N 47°40' W 122°23'0 0.0
2016-Jun-16 13:34N 47°40' W 122°23'0 0.0
2016-Jun-16 12:33N 47°40' W 122°23'0 0.0
2016-Jun-16 11:34N 47°40' W 122°23'0 0.0
2016-Jun-16 10:34N 47°40' W 122°23'0 0.0
2016-Jun-16 09:34N 47°40' W 122°23'0 0.0
2016-Jun-16 08:34N 47°40' W 122°23'0 0.0
2016-Jun-16 07:34N 47°40' W 122°23'0 0.0
2016-Jun-16 06:33N 47°40' W 122°23'0 0.0
2016-Jun-16 05:34N 47°40' W 122°23'0 0.0
2016-Jun-16 04:33N 47°40' W 122°23'0 0.0
2016-Jun-16 03:34N 47°40' W 122°23'0 0.0
2016-Jun-16 02:34N 47°40' W 122°23'0 0.0
2016-Jun-16 01:34N 47°40' W 122°23'0 0.0
2016-Jun-16 00:34N 47°40' W 122°23'0 0.0
2016-Jun-15 23:34N 47°40' W 122°23'0 0.0
2016-Jun-15 22:33N 47°40' W 122°23'0 0.0
2016-Jun-15 21:34N 47°40' W 122°23'0 0.0
2016-Jun-15 20:34N 47°40' W 122°23'0 0.0
2016-Jun-15 19:34N 47°40' W 122°23'0 0.0
2016-Jun-15 18:34N 47°40' W 122°23'0 0.0
2016-Jun-15 17:33N 47°40' W 122°23'0 0.0
2016-Jun-15 16:34N 47°40' W 122°23'0 0.0
2016-Jun-15 15:34N 47°40' W 122°23'0 0.0
2016-Jun-15 14:34N 47°40' W 122°23'0 0.0
2016-Jun-15 13:34N 47°40' W 122°23'0 0.0
2016-Jun-15 12:34N 47°40' W 122°23'0 0.0
2016-Jun-15 11:34N 47°40' W 122°23'0 0.0
2016-Jun-15 10:34N 47°40' W 122°23'0 0.0
2016-Jun-15 09:33N 47°40' W 122°23'0 0.0
2016-Jun-15 08:34N 47°40' W 122°23'0 0.0
2016-Jun-15 07:34N 47°40' W 122°23'0 0.0
2016-Jun-15 06:34N 47°40' W 122°23'0 0.0
2016-Jun-15 05:34N 47°40' W 122°23'0 0.0
2016-Jun-15 04:34N 47°40' W 122°23'0 0.0
2016-Jun-15 03:34N 47°40' W 122°23'0 0.0
2016-Jun-15 02:34N 47°40' W 122°23'0 0.0
2016-Jun-15 01:34N 47°40' W 122°23'0 0.0
2016-Jun-15 00:34N 47°40' W 122°23'0 0.0
2016-Jun-14 23:34N 47°40' W 122°23'0 0.0
2016-Jun-14 22:34N 47°40' W 122°23'0 0.0
2016-Jun-14 21:33N 47°40' W 122°23'0 0.0
2016-Jun-14 20:34N 47°40' W 122°23'0 0.0
2016-Jun-14 19:34N 47°40' W 122°23'0 0.0
2016-Jun-14 18:34N 47°40' W 122°23'0 0.0
2016-Jun-14 17:34N 47°40' W 122°23'0 0.0
2016-Jun-14 16:34N 47°40' W 122°23'0 0.0
2016-Jun-14 15:34N 47°40' W 122°23'0 0.2
2016-Jun-14 14:34N 47°40' W 122°23'0 0.0
2016-Jun-14 13:34N 47°40' W 122°23'0 0.0
2016-Jun-14 12:34N 47°40' W 122°23'0 0.0
2016-Jun-14 11:34N 47°40' W 122°23'0 0.0
2016-Jun-14 10:34N 47°40' W 122°23'0 0.0
2016-Jun-14 09:34N 47°40' W 122°23'0 0.0
2016-Jun-14 08:34N 47°40' W 122°23'0 0.0
2016-Jun-14 07:34N 47°40' W 122°23'0 0.0
2016-Jun-14 05:34N 47°40' W 122°23'0 0.0
2016-Jun-14 04:34N 47°40' W 122°23'0 0.0
2016-Jun-14 03:34N 47°40' W 122°23'0 0.0
2016-Jun-14 02:33N 47°40' W 122°23'0 0.0
2016-Jun-14 01:34N 47°40' W 122°23'0 0.0
2016-Jun-14 00:33N 47°40' W 122°23'0 0.0
2016-Jun-13 23:34N 47°40' W 122°23'0 0.0
2016-Jun-13 22:34N 47°40' W 122°23'0 0.0
2016-Jun-13 21:34N 47°40' W 122°23'0 0.0
2016-Jun-13 20:34N 47°40' W 122°23'0 0.0
2016-Jun-13 19:34N 47°40' W 122°23'0 0.0
2016-Jun-13 18:34N 47°40' W 122°23'0 0.0
2016-Jun-13 17:34N 47°40' W 122°23'0 0.0
2016-Jun-13 16:34N 47°40' W 122°23'0 0.0
2016-Jun-13 15:34N 47°40' W 122°23'0 0.2
2016-Jun-13 14:34N 47°40' W 122°23'0 0.0
2016-Jun-13 13:33N 47°40' W 122°23'0 0.0
2016-Jun-13 12:34N 47°40' W 122°23'0 0.0
2016-Jun-13 11:34N 47°40' W 122°23'0 0.0
2016-Jun-13 10:34N 47°40' W 122°23'0 0.0
2016-Jun-13 09:33N 47°40' W 122°23'0 0.0
2016-Jun-13 08:34N 47°40' W 122°23'0 0.0
2016-Jun-13 07:33N 47°40' W 122°23'0 0.0
2016-Jun-13 06:33N 47°40' W 122°23'0 0.0
2016-Jun-13 05:34N 47°40' W 122°23'0 0.0
2016-Jun-13 04:33N 47°40' W 122°23'0 0.0
2016-Jun-13 03:34N 47°40' W 122°23'0 0.0
2016-Jun-13 02:34N 47°40' W 122°23'0 0.0
2016-Jun-13 01:34N 47°40' W 122°23'0 0.0
2016-Jun-13 00:33N 47°40' W 122°23'0 0.0
2016-Jun-12 23:33N 47°40' W 122°23'0 0.0
2016-Jun-12 22:34N 47°40' W 122°23'0 0.0
2016-Jun-12 21:33N 47°40' W 122°23'0 0.0
2016-Jun-12 20:34N 47°40' W 122°23'0 0.0
2016-Jun-12 19:34N 47°40' W 122°23'0 0.0
2016-Jun-12 18:34N 47°40' W 122°23'0 0.0
2016-Jun-12 17:34N 47°40' W 122°23'0 0.0
2016-Jun-12 16:34N 47°40' W 122°23'0 0.0
2016-Jun-12 15:34N 47°40' W 122°23'0 0.0
2016-Jun-12 14:34N 47°40' W 122°23'0 0.0
2016-Jun-12 13:34N 47°40' W 122°23'0 0.0
2016-Jun-12 12:34N 47°40' W 122°23'0 0.0
2016-Jun-12 11:34N 47°40' W 122°23'0 0.0
2016-Jun-12 10:33N 47°40' W 122°23'0 0.0
2016-Jun-12 09:34N 47°40' W 122°23'0 0.0
2016-Jun-12 08:34N 47°40' W 122°23'0 0.0
2016-Jun-12 07:33N 47°40' W 122°23'0 0.0
2016-Jun-12 06:34N 47°40' W 122°23'0 0.0
2016-Jun-12 04:34N 47°40' W 122°23'0 0.0
2016-Jun-12 03:34N 47°40' W 122°23'0 0.0
2016-Jun-12 02:33N 47°40' W 122°23'0 0.0
2016-Jun-12 01:33N 47°40' W 122°23'0 0.0
2016-Jun-12 00:33N 47°40' W 122°23'0 0.0
2016-Jun-11 23:33N 47°40' W 122°23'0 0.0
2016-Jun-11 22:34N 47°40' W 122°23'0 0.0
2016-Jun-11 21:34N 47°40' W 122°23'0 0.0
2016-Jun-11 20:33N 47°40' W 122°23'0 0.0
2016-Jun-11 19:34N 47°40' W 122°23'0 0.0
2016-Jun-10 16:08N 47°40' W 122°23'0 0.0
2016-Jun-10 15:33N 47°40' W 122°23'0 0.0
2016-Jun-10 14:33N 47°40' W 122°23'0 0.0
2016-Jun-10 13:34N 47°40' W 122°23'0 0.0
2016-Jun-10 12:33N 47°40' W 122°23'0 0.0
2016-Jun-10 11:33N 47°40' W 122°23'0 0.0
2016-Jun-10 10:33N 47°40' W 122°23'0 0.0
2016-Jun-10 09:34N 47°40' W 122°23'0 0.0
2016-Jun-10 08:33N 47°40' W 122°23'0 0.0
2016-Jun-10 07:33N 47°40' W 122°23'0 0.0
2016-Jun-10 06:34N 47°40' W 122°23'0 0.0
2016-Jun-10 05:34N 47°40' W 122°23'0 0.0
2016-Jun-10 04:34N 47°40' W 122°23'0 0.0
2016-Jun-10 03:33N 47°40' W 122°23'0 0.0
2016-Jun-10 02:33N 47°40' W 122°23'1 0.8
2016-Jun-10 01:34N 47°40' W 122°24'7 7.2
2016-Jun-10 00:33N 47°33' W 122°26'1010.2
2016-Jun-09 23:34N 47°23' W 122°21'  
Track history (hours):
 
Tides and Currents Weather Stations Pressure Air Temp Water Temp Dewpoint Dewpoint Depression Visibility Wind Speed Wind Dir Waves Ship Positions

Wizard

Owner: K. H.Colburn Inc, Redmond, WA. More information available from US FCC via Universal Licensing System and Coast Guard Vessel Documentation Center.

Last reported at 2016-Jun-19 23:13 UTC. Time now 2016-Aug-27 02:58 UTC.
Position N 49°17' W 126°55'.
Warning: this ship's position is months out of date.

Length 52 m; draft 0.4 m.

MMSI: 5491.

Date/timePositionNaut miles runAvg speedWind from/ knotsBaromVisibWave heightAir tempDewpointWater temp
2016-Jun-19 23:13N 49°17' W 126°55'6 9.6
2016-Jun-19 22:33N 49°13' W 126°47'10 9.6
2016-Jun-19 21:34N 49°08' W 126°34'10 9.5
2016-Jun-19 20:34N 49°03' W 126°22'10 9.9
2016-Jun-19 19:33N 48°57' W 126°10'1010.3
2016-Jun-19 18:34N 48°51' W 125°57'1010.2
2016-Jun-19 17:34N 48°46' W 125°44'1010.5
2016-Jun-19 16:33N 48°40' W 125°31'1110.6
2016-Jun-19 15:33N 48°34' W 125°18'1010.5
2016-Jun-19 14:34N 48°32' W 125°02'1111.0
2016-Jun-19 13:33N 48°30' W 124°46'1111.4
2016-Jun-19 12:34N 48°27' W 124°30'1110.8
2016-Jun-19 11:34N 48°23' W 124°15'1110.3
2016-Jun-19 10:30N 48°18' W 123°59'1010.0
2016-Jun-19 09:31N 48°17' W 123°45'9 9.6
2016-Jun-19 08:33N 48°15' W 123°31'10 9.4
2016-Jun-19 07:26N 48°14' W 123°16'910.2
2016-Jun-19 06:33N 48°13' W 123°02'20 9.7
2016-Jun-19 04:33N 48°02' W 122°37'1110.8
2016-Jun-19 03:34N 47°53' W 122°28'10 9.9
2016-Jun-19 02:34N 47°44' W 122°25'4 4.2
2016-Jun-19 01:34N 47°40' W 122°23'0 0.0
2016-Jun-19 00:33N 47°40' W 122°23'0 0.0
2016-Jun-18 23:33N 47°40' W 122°23'0 0.0
2016-Jun-18 22:34N 47°40' W 122°23'0 0.0
2016-Jun-18 21:34N 47°40' W 122°23'0 0.0
2016-Jun-18 20:33N 47°40' W 122°23'0 0.0
2016-Jun-18 19:34N 47°40' W 122°23'0 0.0
2016-Jun-18 18:34N 47°40' W 122°23'0 0.0
2016-Jun-18 17:34N 47°40' W 122°23'0 0.0
2016-Jun-18 16:34N 47°40' W 122°23'0 0.0
2016-Jun-18 15:34N 47°40' W 122°23'0 0.0
2016-Jun-18 14:34N 47°40' W 122°23'0 0.0
2016-Jun-18 13:34N 47°40' W 122°23'0 0.0
2016-Jun-18 12:34N 47°40' W 122°23'0 0.0
2016-Jun-18 11:34N 47°40' W 122°23'0 0.0
2016-Jun-18 10:34N 47°40' W 122°23'0 0.0
2016-Jun-18 09:34N 47°40' W 122°23'0 0.0
2016-Jun-18 08:34N 47°40' W 122°23'0 0.0
2016-Jun-18 07:34N 47°40' W 122°23'0 0.0
2016-Jun-18 06:34N 47°40' W 122°23'0 0.0
2016-Jun-18 05:33N 47°40' W 122°23'0 0.0
2016-Jun-18 04:34N 47°40' W 122°23'0 0.0
2016-Jun-18 03:34N 47°40' W 122°23'0 0.0
2016-Jun-18 02:34N 47°40' W 122°23'0 0.0
2016-Jun-18 01:34N 47°40' W 122°23'0 0.0
2016-Jun-18 00:34N 47°40' W 122°23'0 0.0
2016-Jun-17 23:34N 47°40' W 122°23'0 0.0
2016-Jun-17 22:34N 47°40' W 122°23'0 0.0
2016-Jun-17 21:34N 47°40' W 122°23'0 0.0
2016-Jun-17 20:34N 47°40' W 122°23'0 0.0
2016-Jun-17 19:33N 47°40' W 122°23'0 0.0
2016-Jun-17 18:34N 47°40' W 122°23'0 0.0
2016-Jun-17 17:34N 47°40' W 122°23'0 0.0
2016-Jun-17 16:34N 47°40' W 122°23'0 0.0
2016-Jun-17 15:34N 47°40' W 122°23'0 0.0
2016-Jun-17 14:34N 47°40' W 122°23'0 0.0
2016-Jun-17 13:34N 47°40' W 122°23'0 0.0
2016-Jun-17 12:34N 47°40' W 122°23'0 0.0
2016-Jun-17 11:34N 47°40' W 122°23'0 0.0
2016-Jun-17 10:34N 47°40' W 122°23'0 0.0
2016-Jun-17 09:34N 47°40' W 122°23'0 0.0
2016-Jun-17 08:33N 47°40' W 122°23'0 0.0
2016-Jun-17 07:34N 47°40' W 122°23'0 0.0
2016-Jun-17 06:34N 47°40' W 122°23'0 0.0
2016-Jun-17 05:34N 47°40' W 122°23'0 0.0
2016-Jun-17 04:34N 47°40' W 122°23'0 0.0
2016-Jun-17 03:33N 47°40' W 122°23'0 0.0
2016-Jun-17 02:34N 47°40' W 122°23'0 0.0
2016-Jun-17 01:34N 47°40' W 122°23'0 0.0
2016-Jun-17 00:34N 47°40' W 122°23'0 0.0
2016-Jun-16 23:34N 47°40' W 122°23'0 0.0
2016-Jun-16 22:34N 47°40' W 122°23'0 0.0
2016-Jun-16 21:34N 47°40' W 122°23'0 0.0
2016-Jun-16 20:34N 47°40' W 122°23'0 0.0
2016-Jun-16 19:34N 47°40' W 122°23'0 0.0
2016-Jun-16 18:34N 47°40' W 122°23'0 0.0
2016-Jun-16 17:34N 47°40' W 122°23'0 0.0
2016-Jun-16 16:34N 47°40' W 122°23'0 0.0
2016-Jun-16 15:34N 47°40' W 122°23'0 0.0
2016-Jun-16 14:34N 47°40' W 122°23'0 0.0
2016-Jun-16 13:34N 47°40' W 122°23'0 0.0
2016-Jun-16 12:33N 47°40' W 122°23'0 0.0
2016-Jun-16 11:34N 47°40' W 122°23'0 0.0
2016-Jun-16 10:34N 47°40' W 122°23'0 0.0
2016-Jun-16 09:34N 47°40' W 122°23'0 0.0
2016-Jun-16 08:34N 47°40' W 122°23'0 0.0
2016-Jun-16 07:34N 47°40' W 122°23'0 0.0
2016-Jun-16 06:33N 47°40' W 122°23'0 0.0
2016-Jun-16 05:34N 47°40' W 122°23'0 0.0
2016-Jun-16 04:33N 47°40' W 122°23'0 0.0
2016-Jun-16 03:34N 47°40' W 122°23'0 0.0
2016-Jun-16 02:34N 47°40' W 122°23'0 0.0
2016-Jun-16 01:34N 47°40' W 122°23'0 0.0
2016-Jun-16 00:34N 47°40' W 122°23'0 0.0
2016-Jun-15 23:34N 47°40' W 122°23'0 0.0
2016-Jun-15 22:33N 47°40' W 122°23'0 0.0
2016-Jun-15 21:34N 47°40' W 122°23'0 0.0
2016-Jun-15 20:34N 47°40' W 122°23'0 0.0
2016-Jun-15 19:34N 47°40' W 122°23'0 0.0
2016-Jun-15 18:34N 47°40' W 122°23'0 0.0
2016-Jun-15 17:33N 47°40' W 122°23'0 0.0
2016-Jun-15 16:34N 47°40' W 122°23'0 0.0
2016-Jun-15 15:34N 47°40' W 122°23'0 0.0
2016-Jun-15 14:34N 47°40' W 122°23'0 0.0
2016-Jun-15 13:34N 47°40' W 122°23'0 0.0
2016-Jun-15 12:34N 47°40' W 122°23'0 0.0
2016-Jun-15 11:34N 47°40' W 122°23'0 0.0
2016-Jun-15 10:34N 47°40' W 122°23'0 0.0
2016-Jun-15 09:33N 47°40' W 122°23'0 0.0
2016-Jun-15 08:34N 47°40' W 122°23'0 0.0
2016-Jun-15 07:34N 47°40' W 122°23'0 0.0
2016-Jun-15 06:34N 47°40' W 122°23'0 0.0
2016-Jun-15 05:34N 47°40' W 122°23'0 0.0
2016-Jun-15 04:34N 47°40' W 122°23'0 0.0
2016-Jun-15 03:34N 47°40' W 122°23'0 0.0
2016-Jun-15 02:34N 47°40' W 122°23'0 0.0
2016-Jun-15 01:34N 47°40' W 122°23'0 0.0
2016-Jun-15 00:34N 47°40' W 122°23'0 0.0
2016-Jun-14 23:34N 47°40' W 122°23'0 0.0
2016-Jun-14 22:34N 47°40' W 122°23'0 0.0
2016-Jun-14 21:33N 47°40' W 122°23'0 0.0
2016-Jun-14 20:34N 47°40' W 122°23'0 0.0
2016-Jun-14 19:34N 47°40' W 122°23'0 0.0
2016-Jun-14 18:34N 47°40' W 122°23'0 0.0
2016-Jun-14 17:34N 47°40' W 122°23'0 0.0
2016-Jun-14 16:34N 47°40' W 122°23'0 0.0
2016-Jun-14 15:34N 47°40' W 122°23'0 0.2
2016-Jun-14 14:34N 47°40' W 122°23'0 0.0
2016-Jun-14 13:34N 47°40' W 122°23'0 0.0
2016-Jun-14 12:34N 47°40' W 122°23'0 0.0
2016-Jun-14 11:34N 47°40' W 122°23'0 0.0
2016-Jun-14 10:34N 47°40' W 122°23'0 0.0
2016-Jun-14 09:34N 47°40' W 122°23'0 0.0
2016-Jun-14 08:34N 47°40' W 122°23'0 0.0
2016-Jun-14 07:34N 47°40' W 122°23'0 0.0
2016-Jun-14 05:34N 47°40' W 122°23'0 0.0
2016-Jun-14 04:34N 47°40' W 122°23'0 0.0
2016-Jun-14 03:34N 47°40' W 122°23'0 0.0
2016-Jun-14 02:33N 47°40' W 122°23'0 0.0
2016-Jun-14 01:34N 47°40' W 122°23'0 0.0
2016-Jun-14 00:33N 47°40' W 122°23'0 0.0
2016-Jun-13 23:34N 47°40' W 122°23'0 0.0
2016-Jun-13 22:34N 47°40' W 122°23'0 0.0
2016-Jun-13 21:34N 47°40' W 122°23'0 0.0
2016-Jun-13 20:34N 47°40' W 122°23'0 0.0
2016-Jun-13 19:34N 47°40' W 122°23'0 0.0
2016-Jun-13 18:34N 47°40' W 122°23'0 0.0
2016-Jun-13 17:34N 47°40' W 122°23'0 0.0
2016-Jun-13 16:34N 47°40' W 122°23'0 0.0
2016-Jun-13 15:34N 47°40' W 122°23'0 0.2
2016-Jun-13 14:34N 47°40' W 122°23'0 0.0
2016-Jun-13 13:33N 47°40' W 122°23'0 0.0
2016-Jun-13 12:34N 47°40' W 122°23'0 0.0
2016-Jun-13 11:34N 47°40' W 122°23'0 0.0
2016-Jun-13 10:34N 47°40' W 122°23'0 0.0
2016-Jun-13 09:33N 47°40' W 122°23'0 0.0
2016-Jun-13 08:34N 47°40' W 122°23'0 0.0
2016-Jun-13 07:33N 47°40' W 122°23'0 0.0
2016-Jun-13 06:33N 47°40' W 122°23'0 0.0
2016-Jun-13 05:34N 47°40' W 122°23'0 0.0
2016-Jun-13 04:33N 47°40' W 122°23'0 0.0
2016-Jun-13 03:34N 47°40' W 122°23'0 0.0
2016-Jun-13 02:34N 47°40' W 122°23'0 0.0
2016-Jun-13 01:34N 47°40' W 122°23'0 0.0
2016-Jun-13 00:33N 47°40' W 122°23'0 0.0
2016-Jun-12 23:33N 47°40' W 122°23'0 0.0
2016-Jun-12 22:34N 47°40' W 122°23'0 0.0
2016-Jun-12 21:33N 47°40' W 122°23'0 0.0
2016-Jun-12 20:34N 47°40' W 122°23'0 0.0
2016-Jun-12 19:34N 47°40' W 122°23'0 0.0
2016-Jun-12 18:34N 47°40' W 122°23'0 0.0
2016-Jun-12 17:34N 47°40' W 122°23'0 0.0
2016-Jun-12 16:34N 47°40' W 122°23'0 0.0
2016-Jun-12 15:34N 47°40' W 122°23'0 0.0
2016-Jun-12 14:34N 47°40' W 122°23'0 0.0
2016-Jun-12 13:34N 47°40' W 122°23'0 0.0
2016-Jun-12 12:34N 47°40' W 122°23'0 0.0
2016-Jun-12 11:34N 47°40' W 122°23'0 0.0
2016-Jun-12 10:33N 47°40' W 122°23'0 0.0
2016-Jun-12 09:34N 47°40' W 122°23'0 0.0
2016-Jun-12 08:34N 47°40' W 122°23'0 0.0
2016-Jun-12 07:33N 47°40' W 122°23'0 0.0
2016-Jun-12 06:34N 47°40' W 122°23'0 0.0
2016-Jun-12 04:34N 47°40' W 122°23'0 0.0
2016-Jun-12 03:34N 47°40' W 122°23'0 0.0
2016-Jun-12 02:33N 47°40' W 122°23'0 0.0
2016-Jun-12 01:33N 47°40' W 122°23'0 0.0
2016-Jun-12 00:33N 47°40' W 122°23'0 0.0
2016-Jun-11 23:33N 47°40' W 122°23'0 0.0
2016-Jun-11 22:34N 47°40' W 122°23'0 0.0
2016-Jun-11 21:34N 47°40' W 122°23'0 0.0
2016-Jun-11 20:33N 47°40' W 122°23'0 0.0
2016-Jun-11 19:34N 47°40' W 122°23'0 0.0
2016-Jun-10 16:08N 47°40' W 122°23'0 0.0
2016-Jun-10 15:33N 47°40' W 122°23'0 0.0
2016-Jun-10 14:33N 47°40' W 122°23'0 0.0
2016-Jun-10 13:34N 47°40' W 122°23'0 0.0
2016-Jun-10 12:33N 47°40' W 122°23'0 0.0
2016-Jun-10 11:33N 47°40' W 122°23'0 0.0
2016-Jun-10 10:33N 47°40' W 122°23'0 0.0
2016-Jun-10 09:34N 47°40' W 122°23'0 0.0
2016-Jun-10 08:33N 47°40' W 122°23'0 0.0
2016-Jun-10 07:33N 47°40' W 122°23'0 0.0
2016-Jun-10 06:34N 47°40' W 122°23'0 0.0
2016-Jun-10 05:34N 47°40' W 122°23'0 0.0
2016-Jun-10 04:34N 47°40' W 122°23'0 0.0
2016-Jun-10 03:33N 47°40' W 122°23'0 0.0
2016-Jun-10 02:33N 47°40' W 122°23'1 0.8
2016-Jun-10 01:34N 47°40' W 122°24'7 7.2
2016-Jun-10 00:33N 47°33' W 122°26'1010.2
2016-Jun-09 23:34N 47°23' W 122°21'  

Dump ship's entire track history